sensor_id;sensor_type;location;lat;lon;timestamp;pressure;altitude;pressure_sealevel;temperature;humidity
21803;BME280;18591;47.080;22.214;2023-09-12T00:01:58;99478.97;;;24.04;47.91
21803;BME280;18591;47.080;22.214;2023-09-12T00:04:00;99483.59;;;24.04;47.88
21803;BME280;18591;47.080;22.214;2023-09-12T00:06:03;99481.72;;;24.04;47.41
21803;BME280;18591;47.080;22.214;2023-09-12T00:08:07;99482.44;;;24.06;47.69
21803;BME280;18591;47.080;22.214;2023-09-12T00:10:09;99483.47;;;24.05;47.65
21803;BME280;18591;47.080;22.214;2023-09-12T00:12:14;99482.44;;;24.06;47.68
21803;BME280;18591;47.080;22.214;2023-09-12T00:14:18;99488.34;;;24.11;47.14
21803;BME280;18591;47.080;22.214;2023-09-12T00:16:20;99485.03;;;24.08;47.71
21803;BME280;18591;47.080;22.214;2023-09-12T00:18:23;99488.66;;;24.08;47.38
21803;BME280;18591;47.080;22.214;2023-09-12T00:20:25;99488.53;;;24.10;47.33
21803;BME280;18591;47.080;22.214;2023-09-12T00:22:28;99479.38;;;24.09;47.08
21803;BME280;18591;47.080;22.214;2023-09-12T00:24:30;99485.59;;;24.11;47.45
21803;BME280;18591;47.080;22.214;2023-09-12T00:26:33;99485.78;;;24.00;47.40
21803;BME280;18591;47.080;22.214;2023-09-12T00:28:36;99485.03;;;23.98;47.14
21803;BME280;18591;47.080;22.214;2023-09-12T00:30:41;99487.50;;;24.01;47.33
21803;BME280;18591;47.080;22.214;2023-09-12T00:32:45;99486.63;;;24.01;47.00
21803;BME280;18591;47.080;22.214;2023-09-12T00:34:48;99488.34;;;24.02;47.07
21803;BME280;18591;47.080;22.214;2023-09-12T00:36:50;99489.09;;;24.04;47.31
21803;BME280;18591;47.080;22.214;2023-09-12T00:38:53;99480.56;;;24.07;46.80
21803;BME280;18591;47.080;22.214;2023-09-12T00:40:55;99491.69;;;24.05;47.91
21803;BME280;18591;47.080;22.214;2023-09-12T00:42:58;99487.06;;;23.96;48.18
21803;BME280;18591;47.080;22.214;2023-09-12T00:45:01;99482.03;;;23.82;49.21
21803;BME280;18591;47.080;22.214;2023-09-12T00:47:04;99484.34;;;23.77;49.09
21803;BME280;18591;47.080;22.214;2023-09-12T00:49:08;99482.03;;;23.72;48.97
21803;BME280;18591;47.080;22.214;2023-09-12T00:51:10;99488.25;;;23.74;48.93
21803;BME280;18591;47.080;22.214;2023-09-12T00:53:15;99493.00;;;23.72;49.40
21803;BME280;18591;47.080;22.214;2023-09-12T00:55:18;99492.56;;;23.77;48.68
21803;BME280;18591;47.080;22.214;2023-09-12T00:57:21;99485.94;;;23.79;48.89
21803;BME280;18591;47.080;22.214;2023-09-12T00:59:24;99486.19;;;23.76;49.29
21803;BME280;18591;47.080;22.214;2023-09-12T01:01:27;99493.72;;;23.74;49.31
21803;BME280;18591;47.080;22.214;2023-09-12T01:03:30;99484.72;;;23.62;49.13
21803;BME280;18591;47.080;22.214;2023-09-12T01:05:33;99484.59;;;23.54;50.00
21803;BME280;18591;47.080;22.214;2023-09-12T01:07:37;99486.31;;;23.55;49.67
21803;BME280;18591;47.080;22.214;2023-09-12T01:09:40;99495.41;;;23.46;49.67
21803;BME280;18591;47.080;22.214;2023-09-12T01:11:43;99485.56;;;23.34;49.88
21803;BME280;18591;47.080;22.214;2023-09-12T01:13:46;99492.91;;;23.23;50.29
21803;BME280;18591;47.080;22.214;2023-09-12T01:15:48;99485.53;;;23.24;50.22
21803;BME280;18591;47.080;22.214;2023-09-12T01:17:51;99487.72;;;23.30;50.02
21803;BME280;18591;47.080;22.214;2023-09-12T01:19:54;99493.06;;;23.32;49.71
21803;BME280;18591;47.080;22.214;2023-09-12T01:22:34;99490.47;;;22.90;51.55
21803;BME280;18591;47.080;22.214;2023-09-12T01:27:26;99488.66;;;23.00;50.63
21803;BME280;18591;47.080;22.214;2023-09-12T01:29:30;99484.78;;;23.02;50.05
21803;BME280;18591;47.080;22.214;2023-09-12T01:31:35;99485.09;;;22.88;51.49
21803;BME280;18591;47.080;22.214;2023-09-12T01:33:39;99490.31;;;22.91;51.03
21803;BME280;18591;47.080;22.214;2023-09-12T01:35:42;99496.38;;;22.95;50.78
21803;BME280;18591;47.080;22.214;2023-09-12T01:37:45;99483.56;;;22.95;50.53
21803;BME280;18591;47.080;22.214;2023-09-12T01:39:48;99491.41;;;23.00;50.31
21803;BME280;18591;47.080;22.214;2023-09-12T01:41:52;99498.75;;;22.99;50.46
21803;BME280;18591;47.080;22.214;2023-09-12T01:43:56;99499.66;;;22.89;50.96
21803;BME280;18591;47.080;22.214;2023-09-12T01:46:00;99502.00;;;22.93;50.62
21803;BME280;18591;47.080;22.214;2023-09-12T01:48:05;99494.06;;;22.90;50.31
21803;BME280;18591;47.080;22.214;2023-09-12T01:50:09;99505.31;;;22.87;50.54
21803;BME280;18591;47.080;22.214;2023-09-12T01:52:15;99501.63;;;22.98;50.08
21803;BME280;18591;47.080;22.214;2023-09-12T01:54:19;99498.47;;;23.02;49.87
21803;BME280;18591;47.080;22.214;2023-09-12T01:56:23;99506.28;;;23.07;49.61
21803;BME280;18591;47.080;22.214;2023-09-12T01:58:26;99494.13;;;23.00;50.04
21803;BME280;18591;47.080;22.214;2023-09-12T02:00:29;99491.69;;;23.07;49.80
21803;BME280;18591;47.080;22.214;2023-09-12T02:02:31;99500.91;;;23.06;49.32
21803;BME280;18591;47.080;22.214;2023-09-12T02:04:34;99500.78;;;23.07;49.63
21803;BME280;18591;47.080;22.214;2023-09-12T02:06:36;99496.75;;;23.11;49.43
21803;BME280;18591;47.080;22.214;2023-09-12T02:08:39;99493.28;;;23.09;49.89
21803;BME280;18591;47.080;22.214;2023-09-12T02:10:43;99499.03;;;23.06;49.72
21803;BME280;18591;47.080;22.214;2023-09-12T02:12:45;99506.00;;;23.10;49.40
21803;BME280;18591;47.080;22.214;2023-09-12T02:14:48;99504.69;;;23.04;49.52
21803;BME280;18591;47.080;22.214;2023-09-12T02:16:50;99502.47;;;22.98;50.18
21803;BME280;18591;47.080;22.214;2023-09-12T02:18:55;99501.06;;;23.04;49.79
21803;BME280;18591;47.080;22.214;2023-09-12T02:21:00;99500.13;;;22.94;49.83
21803;BME280;18591;47.080;22.214;2023-09-12T02:23:03;99502.97;;;22.82;49.98
21803;BME280;18591;47.080;22.214;2023-09-12T02:25:06;99493.03;;;22.81;50.24
21803;BME280;18591;47.080;22.214;2023-09-12T02:27:08;99501.25;;;22.81;49.85
21803;BME280;18591;47.080;22.214;2023-09-12T02:29:11;99500.81;;;22.86;49.71
21803;BME280;18591;47.080;22.214;2023-09-12T02:31:13;99503.81;;;22.83;50.30
21803;BME280;18591;47.080;22.214;2023-09-12T02:33:16;99503.38;;;22.78;50.70
21803;BME280;18591;47.080;22.214;2023-09-12T02:35:18;99499.66;;;22.79;50.10
21803;BME280;18591;47.080;22.214;2023-09-12T02:37:21;99500.91;;;22.75;50.07
21803;BME280;18591;47.080;22.214;2023-09-12T02:39:23;99496.13;;;22.67;50.58
21803;BME280;18591;47.080;22.214;2023-09-12T02:41:26;99498.19;;;22.75;50.42
21803;BME280;18591;47.080;22.214;2023-09-12T02:43:28;99501.31;;;22.70;50.52
21803;BME280;18591;47.080;22.214;2023-09-12T02:45:31;99500.06;;;22.74;50.16
21803;BME280;18591;47.080;22.214;2023-09-12T02:47:34;99495.88;;;22.80;50.00
21803;BME280;18591;47.080;22.214;2023-09-12T02:49:36;99498.97;;;22.66;50.68
21803;BME280;18591;47.080;22.214;2023-09-12T02:51:39;99495.22;;;22.57;50.46
21803;BME280;18591;47.080;22.214;2023-09-12T02:53:42;99496.53;;;22.63;50.80
21803;BME280;18591;47.080;22.214;2023-09-12T02:55:44;99491.78;;;22.65;50.56
21803;BME280;18591;47.080;22.214;2023-09-12T02:57:46;99492.81;;;22.73;50.65
21803;BME280;18591;47.080;22.214;2023-09-12T02:59:49;99489.38;;;22.71;50.36
21803;BME280;18591;47.080;22.214;2023-09-12T03:01:52;99497.31;;;22.74;50.43
21803;BME280;18591;47.080;22.214;2023-09-12T03:03:54;99498.31;;;22.73;50.33
21803;BME280;18591;47.080;22.214;2023-09-12T03:06:01;99494.25;;;22.68;50.27
21803;BME280;18591;47.080;22.214;2023-09-12T03:08:05;99497.13;;;22.66;50.53
21803;BME280;18591;47.080;22.214;2023-09-12T03:10:08;99497.38;;;22.63;50.42
21803;BME280;18591;47.080;22.214;2023-09-12T03:12:11;99496.53;;;22.63;50.07
21803;BME280;18591;47.080;22.214;2023-09-12T03:14:13;99497.25;;;22.65;50.25
21803;BME280;18591;47.080;22.214;2023-09-12T03:16:17;99487.91;;;22.67;50.18
21803;BME280;18591;47.080;22.214;2023-09-12T03:18:19;99493.22;;;22.59;50.50
21803;BME280;18591;47.080;22.214;2023-09-12T03:20:22;99497.53;;;22.61;50.12
21803;BME280;18591;47.080;22.214;2023-09-12T03:22:25;99498.06;;;22.55;50.40
21803;BME280;18591;47.080;22.214;2023-09-12T03:24:27;99502.97;;;22.52;50.39
21803;BME280;18591;47.080;22.214;2023-09-12T03:26:33;99500.09;;;22.53;50.48
21803;BME280;18591;47.080;22.214;2023-09-12T03:28:36;99503.28;;;22.37;51.51
21803;BME280;18591;47.080;22.214;2023-09-12T03:30:39;99499.75;;;22.47;51.17
21803;BME280;18591;47.080;22.214;2023-09-12T03:32:42;99491.56;;;22.47;50.91
21803;BME280;18591;47.080;22.214;2023-09-12T03:34:45;99500.50;;;22.49;51.06
21803;BME280;18591;47.080;22.214;2023-09-12T03:36:48;99492.28;;;22.49;50.92
21803;BME280;18591;47.080;22.214;2023-09-12T03:38:50;99500.63;;;22.47;51.38
21803;BME280;18591;47.080;22.214;2023-09-12T03:40:53;99502.50;;;22.47;50.82
21803;BME280;18591;47.080;22.214;2023-09-12T03:42:56;99500.34;;;22.50;50.92
21803;BME280;18591;47.080;22.214;2023-09-12T03:44:58;99502.22;;;22.50;51.21
21803;BME280;18591;47.080;22.214;2023-09-12T03:47:01;99504.22;;;22.48;50.89
21803;BME280;18591;47.080;22.214;2023-09-12T03:49:03;99499.03;;;22.45;51.05
21803;BME280;18591;47.080;22.214;2023-09-12T03:51:06;99502.78;;;22.44;51.30
21803;BME280;18591;47.080;22.214;2023-09-12T03:53:08;99517.31;;;22.44;51.19
21803;BME280;18591;47.080;22.214;2023-09-12T03:55:11;99516.00;;;22.38;51.53
21803;BME280;18591;47.080;22.214;2023-09-12T03:57:14;99506.38;;;22.44;51.37
21803;BME280;18591;47.080;22.214;2023-09-12T03:59:17;99513.09;;;22.40;51.18
21803;BME280;18591;47.080;22.214;2023-09-12T04:01:20;99508.66;;;22.39;51.14
21803;BME280;18591;47.080;22.214;2023-09-12T04:03:23;99507.06;;;22.36;51.46
21803;BME280;18591;47.080;22.214;2023-09-12T04:05:26;99512.06;;;22.31;51.40
21803;BME280;18591;47.080;22.214;2023-09-12T04:07:29;99521.28;;;22.30;51.52
21803;BME280;18591;47.080;22.214;2023-09-12T04:09:32;99513.34;;;22.27;51.23
21803;BME280;18591;47.080;22.214;2023-09-12T04:11:34;99511.88;;;22.23;51.53
21803;BME280;18591;47.080;22.214;2023-09-12T04:13:48;99509.00;;;22.25;51.45
21803;BME280;18591;47.080;22.214;2023-09-12T04:15:51;99509.88;;;22.25;51.31
21803;BME280;18591;47.080;22.214;2023-09-12T04:17:54;99513.59;;;22.24;51.67
21803;BME280;18591;47.080;22.214;2023-09-12T04:19:57;99510.63;;;22.16;51.93
21803;BME280;18591;47.080;22.214;2023-09-12T04:22:00;99509.03;;;22.13;51.56
21803;BME280;18591;47.080;22.214;2023-09-12T04:24:03;99511.75;;;22.13;51.89
21803;BME280;18591;47.080;22.214;2023-09-12T04:26:06;99505.16;;;22.16;51.60
21803;BME280;18591;47.080;22.214;2023-09-12T04:28:09;99512.63;;;22.14;51.58
21803;BME280;18591;47.080;22.214;2023-09-12T04:30:12;99503.94;;;22.20;51.60
21803;BME280;18591;47.080;22.214;2023-09-12T04:32:15;99509.75;;;22.15;51.86
21803;BME280;18591;47.080;22.214;2023-09-12T04:34:19;99510.50;;;22.17;51.49
21803;BME280;18591;47.080;22.214;2023-09-12T04:36:22;99508.63;;;22.18;51.51
21803;BME280;18591;47.080;22.214;2023-09-12T04:38:26;99514.59;;;22.23;51.21
21803;BME280;18591;47.080;22.214;2023-09-12T04:40:28;99516.75;;;22.20;51.45
21803;BME280;18591;47.080;22.214;2023-09-12T04:42:31;99516.19;;;22.26;51.57
21803;BME280;18591;47.080;22.214;2023-09-12T04:44:39;99522.69;;;22.25;51.48
21803;BME280;18591;47.080;22.214;2023-09-12T04:46:41;99525.88;;;22.30;51.41
21803;BME280;18591;47.080;22.214;2023-09-12T04:48:45;99519.81;;;22.26;51.62
21803;BME280;18591;47.080;22.214;2023-09-12T04:50:48;99518.09;;;22.25;51.79
21803;BME280;18591;47.080;22.214;2023-09-12T04:52:51;99521.28;;;22.30;51.74
21803;BME280;18591;47.080;22.214;2023-09-12T04:54:53;99514.53;;;22.34;51.27
21803;BME280;18591;47.080;22.214;2023-09-12T04:56:56;99522.69;;;22.46;51.64
21803;BME280;18591;47.080;22.214;2023-09-12T04:58:58;99522.78;;;22.44;51.60
21803;BME280;18591;47.080;22.214;2023-09-12T05:01:01;99526.13;;;22.48;51.36
21803;BME280;18591;47.080;22.214;2023-09-12T05:03:04;99521.09;;;22.53;51.13
21803;BME280;18591;47.080;22.214;2023-09-12T05:05:07;99524.13;;;22.50;51.58
21803;BME280;18591;47.080;22.214;2023-09-12T05:07:10;99521.09;;;22.53;51.62
21803;BME280;18591;47.080;22.214;2023-09-12T05:09:13;99513.97;;;22.61;51.49
21803;BME280;18591;47.080;22.214;2023-09-12T05:11:15;99520.03;;;22.65;51.75
21803;BME280;18591;47.080;22.214;2023-09-12T05:13:18;99521.22;;;22.72;51.52
21803;BME280;18591;47.080;22.214;2023-09-12T05:15:21;99523.97;;;22.72;51.49
21803;BME280;18591;47.080;22.214;2023-09-12T05:17:24;99519.97;;;22.76;52.13
21803;BME280;18591;47.080;22.214;2023-09-12T05:19:27;99519.53;;;22.81;51.61
21803;BME280;18591;47.080;22.214;2023-09-12T05:21:29;99522.88;;;22.85;51.40
21803;BME280;18591;47.080;22.214;2023-09-12T05:23:32;99522.59;;;22.88;51.76
21803;BME280;18591;47.080;22.214;2023-09-12T05:25:35;99519.16;;;22.95;51.33
21803;BME280;18591;47.080;22.214;2023-09-12T05:27:38;99524.13;;;23.01;51.60
21803;BME280;18591;47.080;22.214;2023-09-12T05:29:41;99523.88;;;23.14;50.79
21803;BME280;18591;47.080;22.214;2023-09-12T05:31:43;99531.22;;;23.14;50.94
21803;BME280;18591;47.080;22.214;2023-09-12T05:33:46;99530.69;;;23.20;50.69
21803;BME280;18591;47.080;22.214;2023-09-12T05:35:49;99529.38;;;23.24;50.77
21803;BME280;18591;47.080;22.214;2023-09-12T05:37:52;99534.88;;;23.24;50.72
21803;BME280;18591;47.080;22.214;2023-09-12T05:39:54;99540.38;;;23.34;50.71
21803;BME280;18591;47.080;22.214;2023-09-12T05:41:57;99533.34;;;23.41;51.03
21803;BME280;18591;47.080;22.214;2023-09-12T05:44:00;99533.50;;;23.49;50.50
21803;BME280;18591;47.080;22.214;2023-09-12T05:46:02;99526.88;;;23.52;50.60
21803;BME280;18591;47.080;22.214;2023-09-12T05:48:05;99539.28;;;23.56;50.79
21803;BME280;18591;47.080;22.214;2023-09-12T05:50:09;99541.16;;;23.65;50.36
21803;BME280;18591;47.080;22.214;2023-09-12T05:52:11;99532.81;;;23.76;50.23
21803;BME280;18591;47.080;22.214;2023-09-12T05:54:14;99540.50;;;23.82;50.27
21803;BME280;18591;47.080;22.214;2023-09-12T05:56:17;99540.34;;;23.94;50.20
21803;BME280;18591;47.080;22.214;2023-09-12T05:58:22;99545.81;;;23.84;49.89
21803;BME280;18591;47.080;22.214;2023-09-12T06:00:25;99542.09;;;23.95;49.93
21803;BME280;18591;47.080;22.214;2023-09-12T06:02:28;99538.03;;;23.99;50.13
21803;BME280;18591;47.080;22.214;2023-09-12T06:04:32;99532.84;;;24.05;49.88
21803;BME280;18591;47.080;22.214;2023-09-12T06:06:35;99534.28;;;24.19;50.00
21803;BME280;18591;47.080;22.214;2023-09-12T06:08:38;99534.56;;;24.26;50.18
21803;BME280;18591;47.080;22.214;2023-09-12T06:10:40;99547.13;;;24.38;49.90
21803;BME280;18591;47.080;22.214;2023-09-12T06:12:43;99549.59;;;24.41;50.04
21803;BME280;18591;47.080;22.214;2023-09-12T06:14:46;99549.00;;;24.47;50.27
21803;BME280;18591;47.080;22.214;2023-09-12T06:16:48;99547.69;;;24.61;50.37
21803;BME280;18591;47.080;22.214;2023-09-12T06:18:51;99550.16;;;24.64;50.46
21803;BME280;18591;47.080;22.214;2023-09-12T06:20:55;99556.47;;;24.74;50.50
21803;BME280;18591;47.080;22.214;2023-09-12T06:22:58;99550.25;;;24.72;50.29
21803;BME280;18591;47.080;22.214;2023-09-12T06:25:01;99563.44;;;24.69;50.49
21803;BME280;18591;47.080;22.214;2023-09-12T06:27:05;99555.63;;;24.64;50.51
21803;BME280;18591;47.080;22.214;2023-09-12T06:29:08;99561.53;;;24.79;50.49
21803;BME280;18591;47.080;22.214;2023-09-12T06:31:12;99559.16;;;24.94;50.10
21803;BME280;18591;47.080;22.214;2023-09-12T06:33:15;99561.72;;;25.05;50.07
21803;BME280;18591;47.080;22.214;2023-09-12T06:35:17;99568.94;;;25.16;49.64
21803;BME280;18591;47.080;22.214;2023-09-12T06:37:20;99566.59;;;25.21;49.35
21803;BME280;18591;47.080;22.214;2023-09-12T06:39:23;99568.84;;;25.35;49.35
21803;BME280;18591;47.080;22.214;2023-09-12T06:41:27;99570.06;;;25.51;49.72
21803;BME280;18591;47.080;22.214;2023-09-12T06:43:30;99572.16;;;25.67;49.83
21803;BME280;18591;47.080;22.214;2023-09-12T06:45:33;99568.28;;;25.59;49.75
21803;BME280;18591;47.080;22.214;2023-09-12T06:47:35;99568.06;;;25.71;49.28
21803;BME280;18591;47.080;22.214;2023-09-12T06:49:38;99573.56;;;25.71;49.53
21803;BME280;18591;47.080;22.214;2023-09-12T06:51:40;99574.81;;;25.76;49.84
21803;BME280;18591;47.080;22.214;2023-09-12T06:53:43;99575.75;;;25.95;49.71
21803;BME280;18591;47.080;22.214;2023-09-12T06:55:46;99573.16;;;25.93;49.83
21803;BME280;18591;47.080;22.214;2023-09-12T06:57:48;99579.84;;;26.09;49.37
21803;BME280;18591;47.080;22.214;2023-09-12T06:59:51;99576.84;;;26.20;49.57
21803;BME280;18591;47.080;22.214;2023-09-12T07:01:53;99575.97;;;26.37;49.29
21803;BME280;18591;47.080;22.214;2023-09-12T07:03:56;99577.06;;;26.44;48.66
21803;BME280;18591;47.080;22.214;2023-09-12T07:05:59;99574.50;;;26.51;49.08
21803;BME280;18591;47.080;22.214;2023-09-12T07:08:01;99583.06;;;26.58;49.06
21803;BME280;18591;47.080;22.214;2023-09-12T07:10:05;99580.91;;;26.69;48.75
21803;BME280;18591;47.080;22.214;2023-09-12T07:12:26;99589.47;;;26.66;48.62
21803;BME280;18591;47.080;22.214;2023-09-12T07:14:31;99583.34;;;26.73;47.99
21803;BME280;18591;47.080;22.214;2023-09-12T07:16:34;99589.63;;;26.83;47.90
21803;BME280;18591;47.080;22.214;2023-09-12T07:18:36;99588.38;;;26.77;47.36
21803;BME280;18591;47.080;22.214;2023-09-12T07:20:39;99592.47;;;26.99;47.45
21803;BME280;18591;47.080;22.214;2023-09-12T07:22:41;99588.91;;;26.81;46.62
21803;BME280;18591;47.080;22.214;2023-09-12T07:24:44;99590.75;;;26.98;47.47
21803;BME280;18591;47.080;22.214;2023-09-12T07:26:47;99591.50;;;27.08;47.23
21803;BME280;18591;47.080;22.214;2023-09-12T07:28:49;99590.66;;;27.08;46.18
21803;BME280;18591;47.080;22.214;2023-09-12T07:30:53;99586.56;;;27.20;46.57
21803;BME280;18591;47.080;22.214;2023-09-12T07:32:56;99589.41;;;27.28;46.63
21803;BME280;18591;47.080;22.214;2023-09-12T07:34:59;99588.44;;;27.46;46.70
21803;BME280;18591;47.080;22.214;2023-09-12T07:37:01;99595.22;;;27.60;46.53
21803;BME280;18591;47.080;22.214;2023-09-12T07:39:04;99590.78;;;27.75;46.02
21803;BME280;18591;47.080;22.214;2023-09-12T07:41:07;99588.59;;;27.87;45.87
21803;BME280;18591;47.080;22.214;2023-09-12T07:43:10;99591.41;;;28.03;46.56
21803;BME280;18591;47.080;22.214;2023-09-12T07:45:13;99591.59;;;28.18;46.32
21803;BME280;18591;47.080;22.214;2023-09-12T07:47:16;99588.50;;;28.29;46.56
21803;BME280;18591;47.080;22.214;2023-09-12T07:49:18;99590.91;;;28.40;44.62
21803;BME280;18591;47.080;22.214;2023-09-12T07:51:21;99590.09;;;28.48;43.77
21803;BME280;18591;47.080;22.214;2023-09-12T07:53:25;99588.72;;;28.60;44.27
21803;BME280;18591;47.080;22.214;2023-09-12T07:55:27;99585.78;;;28.62;42.46
21803;BME280;18591;47.080;22.214;2023-09-12T07:57:33;99578.50;;;28.77;43.33
21803;BME280;18591;47.080;22.214;2023-09-12T07:59:36;99581.75;;;28.89;43.00
21803;BME280;18591;47.080;22.214;2023-09-12T08:01:38;99583.28;;;29.00;42.34
21803;BME280;18591;47.080;22.214;2023-09-12T08:03:42;99582.28;;;29.09;43.10
21803;BME280;18591;47.080;22.214;2023-09-12T08:05:57;99577.75;;;29.16;40.87
21803;BME280;18591;47.080;22.214;2023-09-12T08:08:00;99579.44;;;29.25;41.75
21803;BME280;18591;47.080;22.214;2023-09-12T08:10:03;99578.38;;;29.35;40.95
21803;BME280;18591;47.080;22.214;2023-09-12T08:12:06;99580.94;;;29.44;40.81
21803;BME280;18591;47.080;22.214;2023-09-12T08:14:08;99582.81;;;29.52;40.25
21803;BME280;18591;47.080;22.214;2023-09-12T08:16:11;99575.16;;;29.62;40.80
21803;BME280;18591;47.080;22.214;2023-09-12T08:18:13;99580.69;;;29.70;40.40
21803;BME280;18591;47.080;22.214;2023-09-12T08:20:17;99574.34;;;29.85;40.53
21803;BME280;18591;47.080;22.214;2023-09-12T08:22:20;99572.59;;;29.92;40.40
21803;BME280;18591;47.080;22.214;2023-09-12T08:24:23;99574.28;;;30.01;40.19
21803;BME280;18591;47.080;22.214;2023-09-12T08:26:25;99569.53;;;30.10;40.44
21803;BME280;18591;47.080;22.214;2023-09-12T08:28:28;99575.31;;;30.23;39.92
21803;BME280;18591;47.080;22.214;2023-09-12T08:30:31;99566.63;;;30.34;39.69
21803;BME280;18591;47.080;22.214;2023-09-12T08:32:35;99570.00;;;30.45;39.31
21803;BME280;18591;47.080;22.214;2023-09-12T08:34:38;99570.59;;;30.55;39.58
21803;BME280;18591;47.080;22.214;2023-09-12T08:36:40;99562.19;;;30.63;38.99
21803;BME280;18591;47.080;22.214;2023-09-12T08:38:43;99565.19;;;30.76;39.08
21803;BME280;18591;47.080;22.214;2023-09-12T08:40:52;99567.91;;;30.85;38.44
21803;BME280;18591;47.080;22.214;2023-09-12T08:42:54;99561.41;;;30.92;38.05
21803;BME280;18591;47.080;22.214;2023-09-12T08:44:59;99562.19;;;31.01;38.13
21803;BME280;18591;47.080;22.214;2023-09-12T08:47:04;99553.66;;;31.02;38.08
21803;BME280;18591;47.080;22.214;2023-09-12T08:49:07;99554.94;;;31.15;37.65
21803;BME280;18591;47.080;22.214;2023-09-12T08:51:12;99559.13;;;31.25;37.34
21803;BME280;18591;47.080;22.214;2023-09-12T08:53:15;99561.63;;;31.35;37.88
21803;BME280;18591;47.080;22.214;2023-09-12T08:55:17;99558.09;;;31.41;37.18
21803;BME280;18591;47.080;22.214;2023-09-12T08:57:21;99558.09;;;31.41;36.10
21803;BME280;18591;47.080;22.214;2023-09-12T08:59:24;99557.72;;;31.44;36.17
21803;BME280;18591;47.080;22.214;2023-09-12T09:01:32;99553.31;;;31.50;36.27
21803;BME280;18591;47.080;22.214;2023-09-12T09:03:36;99563.81;;;31.55;36.07
21803;BME280;18591;47.080;22.214;2023-09-12T09:05:40;99562.19;;;31.60;35.47
21803;BME280;18591;47.080;22.214;2023-09-12T09:07:44;99555.47;;;31.70;35.57
21803;BME280;18591;47.080;22.214;2023-09-12T09:09:47;99559.19;;;31.77;35.53
21803;BME280;18591;47.080;22.214;2023-09-12T09:11:51;99551.59;;;31.85;35.82
21803;BME280;18591;47.080;22.214;2023-09-12T09:13:54;99554.09;;;31.95;35.87
21803;BME280;18591;47.080;22.214;2023-09-12T09:16:18;99552.53;;;31.93;34.64
21803;BME280;18591;47.080;22.214;2023-09-12T09:18:22;99552.06;;;32.04;34.75
21803;BME280;18591;47.080;22.214;2023-09-12T09:20:27;99547.81;;;32.08;35.33
21803;BME280;18591;47.080;22.214;2023-09-12T09:22:30;99555.38;;;32.14;34.72
21803;BME280;18591;47.080;22.214;2023-09-12T09:24:33;99550.72;;;32.21;34.98
21803;BME280;18591;47.080;22.214;2023-09-12T09:29:05;99548.94;;;32.35;34.76
21803;BME280;18591;47.080;22.214;2023-09-12T09:31:14;99548.53;;;32.38;34.01
21803;BME280;18591;47.080;22.214;2023-09-12T09:33:17;99550.50;;;32.44;34.62
21803;BME280;18591;47.080;22.214;2023-09-12T09:35:19;99548.50;;;32.53;34.72
21803;BME280;18591;47.080;22.214;2023-09-12T09:37:23;99548.34;;;32.61;34.38
21803;BME280;18591;47.080;22.214;2023-09-12T09:39:27;99549.00;;;32.63;34.09
21803;BME280;18591;47.080;22.214;2023-09-12T09:41:33;99549.44;;;32.67;34.09
21803;BME280;18591;47.080;22.214;2023-09-12T09:43:35;99548.19;;;32.69;34.26
21803;BME280;18591;47.080;22.214;2023-09-12T09:45:45;99543.75;;;32.75;33.71
21803;BME280;18591;47.080;22.214;2023-09-12T09:47:49;99545.06;;;32.79;34.02
21803;BME280;18591;47.080;22.214;2023-09-12T09:49:53;99548.94;;;32.85;34.10
21803;BME280;18591;47.080;22.214;2023-09-12T09:51:55;99552.22;;;32.95;33.97
21803;BME280;18591;47.080;22.214;2023-09-12T09:53:59;99551.41;;;33.01;33.30
21803;BME280;18591;47.080;22.214;2023-09-12T09:56:14;99547.00;;;33.07;32.99
21803;BME280;18591;47.080;22.214;2023-09-12T09:58:17;99545.50;;;33.11;33.10
21803;BME280;18591;47.080;22.214;2023-09-12T10:00:21;99556.88;;;33.16;32.62
21803;BME280;18591;47.080;22.214;2023-09-12T10:02:25;99544.25;;;33.13;32.70
21803;BME280;18591;47.080;22.214;2023-09-12T10:04:32;99540.19;;;33.16;32.18
21803;BME280;18591;47.080;22.214;2023-09-12T10:06:46;99545.81;;;33.23;32.78
21803;BME280;18591;47.080;22.214;2023-09-12T10:08:51;99541.22;;;33.08;31.43
21803;BME280;18591;47.080;22.214;2023-09-12T10:10:54;99550.88;;;33.12;32.43
21803;BME280;18591;47.080;22.214;2023-09-12T10:12:58;99544.06;;;33.22;32.95
21803;BME280;18591;47.080;22.214;2023-09-12T10:15:01;99539.41;;;33.29;32.57
21803;BME280;18591;47.080;22.214;2023-09-12T10:17:03;99541.59;;;33.33;32.56
21803;BME280;18591;47.080;22.214;2023-09-12T10:19:17;99544.16;;;33.35;31.47
21803;BME280;18591;47.080;22.214;2023-09-12T10:21:27;99539.69;;;33.40;31.67
21803;BME280;18591;47.080;22.214;2023-09-12T10:23:38;99542.91;;;33.44;31.10
21803;BME280;18591;47.080;22.214;2023-09-12T10:25:44;99537.84;;;33.54;32.07
21803;BME280;18591;47.080;22.214;2023-09-12T10:27:49;99542.38;;;33.62;32.33
21803;BME280;18591;47.080;22.214;2023-09-12T10:29:53;99529.78;;;33.66;32.27
21803;BME280;18591;47.080;22.214;2023-09-12T10:31:55;99532.97;;;33.70;32.39
21803;BME280;18591;47.080;22.214;2023-09-12T10:33:58;99528.91;;;33.72;31.85
21803;BME280;18591;47.080;22.214;2023-09-12T10:36:06;99527.22;;;33.71;31.52
21803;BME280;18591;47.080;22.214;2023-09-12T10:38:11;99530.66;;;33.80;32.04
21803;BME280;18591;47.080;22.214;2023-09-12T10:40:16;99532.59;;;33.79;31.47
21803;BME280;18591;47.080;22.214;2023-09-12T10:42:20;99527.91;;;33.87;31.99
21803;BME280;18591;47.080;22.214;2023-09-12T10:44:23;99524.25;;;33.93;32.50
21803;BME280;18591;47.080;22.214;2023-09-12T10:46:27;99521.72;;;34.04;31.54
21803;BME280;18591;47.080;22.214;2023-09-12T10:48:31;99521.34;;;34.08;31.83
21803;BME280;18591;47.080;22.214;2023-09-12T10:50:34;99523.69;;;34.11;31.35
21803;BME280;18591;47.080;22.214;2023-09-12T10:52:38;99512.75;;;34.16;31.17